Torda, Románia

2015 Augusztus 02 03:17 PM (EEST időzóna) (GMT +0300)
Someseni | | Change Station
CLOSE
Current Station
Repülőtér
Location: Cluj,
Elevation: 1033 ft
Közeli meteorológiai állomások

Elev 1033 ft 46.78 °N, 23.68 °E | Updated 17 minutes ago

Clear
Derült
84 °F
Hőérzet 83 °F
N
9
Szél: változó Szél: from délkeleti

Ma
High -- | Low -- °F
--% Csapadék valószínű
Tegnapi
High -- | Low -- °F
Precip. -- hvlyk.
6:06 AM 8:55 PM
Fogyó hold, 94% visible
Légnyomás 30.12 hvlyk.
Látótávolság -9999.0 mérföld
Felhők
Hőskála 83 °F
Harmatpont 55 °F
Páratartalom 37%
Rainfall 0.00 hvlyk.
Hóréteg vastagsága Not available.
UV Not available.
Pollen Not available.
A levegő minősége Not available.
Flu Activity Not available.
METAR LRCL 021200Z 12008KT CAVOK 29/13 Q1020

More Conditions Fewer Conditions

Légnyomás 30.12 hvlyk.
Látótávolság -9999.0 mérföld
Felhők
Hőskála 83 °F
Harmatpont 55 °F
Páratartalom 37%
Rainfall 0.00 hvlyk.
Hóréteg vastagsága Not available.
UV Not available.
Pollen Not available.
A levegő minősége Not available.
Flu Activity Not available.
METAR LRCL 021200Z 12008KT CAVOK 29/13 Q1020

More Conditions Fewer Conditions

10-Day Weather Forecast

×

Almanac

Csillagászat

Aug. 02, 2015 Kel Nyugszik
Tényleges idő
Civil alkony
Tengerészeti alkony
Csillagászati alkony
Hold
Látható fény időtartama
A nap hossza
Tomorrow will be .
, % of the Moon is Illuminated

Today's Extremes

Country Highs Country Lows

Community

WunderPhotos

Upload Photos

1,843,233 Fotók feltöltve.

WunderBlogs® & News

Nearby

A levegő minősége

  A levegő minősége AQ Index Szennyezőanyag
Not available.

Hóréteg vastagsága

Station Depth Elevation

Earthquake Activity

város Distance Mag. Time & Date
Minimum magnitude displayed is 2.5.

Coastal Water Temperatures

Hely Hőmérséklet

Stations

Közeli meteorológiai állomások

Station Location Hőm. Hőérzet Harmatpont Páratartalom Szél: Precip. Elev Frissítve Type